Time;durP1;ratioP1;P1;durP2;ratioP2;P2;SDS_P1;SDS_P2;PMS_P1;PMS_P2;Temp;Humidity;BMP_temperature;BMP_pressure;BME280_temperature;BME280_humidity;BME280_pressure;Samples;Min_cycle;Max_cycle;Signal;HPM_P1;HPM_P2
2021/07/01 00:01:42;;;;;;;6.78;4.50;;;;;;;17.24;72.38;99445.25;4989198;28;105996;-65
2021/07/01 00:04:07;;;;;;;7.18;4.25;;;;;;;17.28;72.71;99450.97;4989975;28;105916;-65
2021/07/01 00:06:33;;;;;;;6.68;4.30;;;;;;;17.30;72.65;99451.56;4989037;28;107182;-65
2021/07/01 00:08:58;;;;;;;5.22;3.90;;;;;;;17.33;72.58;99451.09;4988173;28;134847;-65
2021/07/01 00:11:23;;;;;;;3.78;3.38;;;;;;;17.33;72.63;99451.94;4989126;28;106004;-65
2021/07/01 00:13:49;;;;;;;4.47;3.45;;;;;;;17.34;72.41;99452.75;4989737;28;106036;-64
2021/07/01 00:16:14;;;;;;;5.38;3.78;;;;;;;17.31;72.44;99448.63;4989260;28;106178;-66
2021/07/01 00:18:40;;;;;;;5.05;3.85;;;;;;;17.30;72.51;99446.19;4987856;28;134616;-65
2021/07/01 00:21:05;;;;;;;4.65;3.80;;;;;;;17.25;72.57;99446.88;4988851;28;106071;-64
2021/07/01 00:23:30;;;;;;;6.22;3.65;;;;;;;17.22;72.58;99445.47;4988628;28;108885;-65
2021/07/01 00:25:55;;;;;;;5.07;4.00;;;;;;;17.21;72.82;99449.22;4988283;28;124810;-64
2021/07/01 00:28:21;;;;;;;5.28;4.03;;;;;;;17.21;72.79;99443.03;4988542;28;106755;-62
2021/07/01 00:30:46;;;;;;;4.97;3.75;;;;;;;17.21;72.79;99443.03;4987936;28;135475;-63
2021/07/01 00:33:11;;;;;;;4.55;3.40;;;;;;;17.23;72.99;99444.41;4990002;28;105874;-67
2021/07/01 00:35:37;;;;;;;3.53;3.05;;;;;;;17.28;72.99;99440.19;4988249;28;124801;-67
2021/07/01 00:38:02;;;;;;;4.85;3.30;;;;;;;17.34;72.87;99444.66;4987944;28;134838;-64
2021/07/01 00:40:28;;;;;;;4.60;3.38;;;;;;;17.35;72.63;99443.63;4988409;28;106060;-67
2021/07/01 00:42:53;;;;;;;5.45;3.22;;;;;;;17.33;72.70;99438.47;4989692;28;105831;-68
2021/07/01 00:45:19;;;;;;;7.93;3.50;;;;;;;17.32;72.57;99431.44;4988725;28;106479;-68
2021/07/01 00:47:44;;;;;;;5.10;3.25;;;;;;;17.31;72.53;99431.69;4988606;28;105953;-66
2021/07/01 00:50:11;;;;;;;5.10;2.92;;;;;;;17.30;72.68;99428.16;4987091;28;133972;-65
2021/07/01 00:52:38;;;;;;;4.45;3.22;;;;;;;17.37;73.10;99417.25;4989138;28;105853;-64
2021/07/01 00:55:05;;;;;;;6.15;3.45;;;;;;;17.48;73.04;99418.31;4988460;28;106158;-64
2021/07/01 00:57:32;;;;;;;4.28;2.70;;;;;;;17.55;72.63;99421.72;4988341;28;106011;-65
2021/07/01 00:59:57;;;;;;;6.43;3.08;;;;;;;17.58;72.23;99423.94;4987727;28;106303;-65
2021/07/01 01:02:22;;;;;;;4.20;3.15;;;;;;;17.57;72.17;99425.81;4987652;28;111502;-65
2021/07/01 01:04:48;;;;;;;3.95;3.08;;;;;;;17.61;72.09;99425.34;4987630;28;120214;-65
2021/07/01 01:07:13;;;;;;;4.20;3.08;;;;;;;17.53;71.85;99421.94;4986070;28;116857;-65
2021/07/01 01:09:38;;;;;;;6.15;3.05;;;;;;;17.51;71.93;99416.00;4986752;28;106912;-65
2021/07/01 01:12:04;;;;;;;5.45;3.28;;;;;;;17.50;72.02;99416.22;4988027;28;106020;-65
2021/07/01 01:14:30;;;;;;;3.90;2.72;;;;;;;17.45;71.35;99406.16;4988430;28;106206;-66
2021/07/01 01:16:55;;;;;;;3.78;2.85;;;;;;;17.43;72.37;99402.88;4987514;28;106029;-69
2021/07/01 01:19:20;;;;;;;4.78;2.90;;;;;;;17.43;72.00;99403.69;4987968;28;105818;-65
2021/07/01 01:21:49;;;;;;;6.28;2.65;;;;;;;17.46;72.08;99390.84;4988608;28;105869;-67
2021/07/01 01:24:16;;;;;;;6.90;3.08;;;;;;;17.46;71.98;99386.25;4987860;28;106180;-65
2021/07/01 01:26:41;;;;;;;2.80;2.20;;;;;;;17.49;71.88;99390.34;4987609;28;106261;-64
2021/07/01 01:29:07;;;;;;;2.60;2.20;;;;;;;17.51;72.01;99386.38;4987986;28;105995;-66
2021/07/01 01:31:36;;;;;;;4.65;2.38;;;;;;;17.57;71.79;99387.28;4988386;28;106451;-66
2021/07/01 01:34:01;;;;;;;4.40;2.03;;;;;;;17.57;71.45;99393.50;4991326;28;106559;-66
2021/07/01 01:36:26;;;;;;;2.53;1.80;;;;;;;17.59;71.61;99396.78;4989699;28;116174;-64
2021/07/01 01:38:51;;;;;;;2.72;1.77;;;;;;;17.65;71.23;99394.22;4991120;28;106105;-68
2021/07/01 01:41:22;;;;;;;4.75;2.10;;;;;;;17.65;70.90;99386.13;4992439;28;106309;-63
2021/07/01 01:43:47;;;;;;;3.38;2.20;;;;;;;17.66;70.70;99388.59;4991285;28;105728;-64
2021/07/01 01:46:12;;;;;;;2.33;1.83;;;;;;;17.71;70.98;99398.63;4988904;28;134874;-65
2021/07/01 01:48:38;;;;;;;2.85;2.00;;;;;;;17.73;70.48;99385.75;4989389;28;133959;-64
2021/07/01 01:51:03;;;;;;;2.10;1.85;;;;;;;17.72;70.45;99392.19;4991538;28;106023;-63
2021/07/01 01:53:28;;;;;;;4.47;1.98;;;;;;;17.70;70.07;99394.28;4991077;28;106161;-66
2021/07/01 01:55:54;;;;;;;3.17;2.10;;;;;;;17.64;70.07;99395.25;4989867;28;134873;-63
2021/07/01 01:58:19;;;;;;;3.63;2.17;;;;;;;17.61;70.24;99398.44;4990892;28;105790;-66
2021/07/01 02:00:44;;;;;;;2.72;1.92;;;;;;;17.55;70.13;99398.31;4990562;28;111802;-66
2021/07/01 02:03:09;;;;;;;4.57;2.38;;;;;;;17.52;70.23;99401.47;4991146;28;106135;-63
2021/07/01 02:05:35;;;;;;;3.90;2.25;;;;;;;17.46;70.46;99396.22;4990823;28;105935;-64
2021/07/01 02:08:00;;;;;;;3.85;2.13;;;;;;;17.39;70.26;99399.81;4989987;28;129458;-65
2021/07/01 02:10:27;;;;;;;4.13;2.15;;;;;;;17.36;70.25;99396.78;4991255;28;105905;-64
2021/07/01 02:12:53;;;;;;;3.88;2.20;;;;;;;17.34;70.36;99393.50;4990746;28;106588;-65
2021/07/01 02:15:21;;;;;;;3.65;2.22;;;;;;;17.34;70.58;99401.59;4990121;28;105922;-65
2021/07/01 02:17:48;;;;;;;3.15;2.22;;;;;;;17.34;70.66;99397.00;4990437;28;105876;-65
2021/07/01 02:20:16;;;;;;;6.30;2.47;;;;;;;17.34;70.51;99391.63;4991042;28;105912;-66
2021/07/01 02:22:42;;;;;;;5.65;2.00;;;;;;;17.38;70.75;99394.69;4990577;28;106136;-68
2021/07/01 02:25:08;;;;;;;4.50;2.47;;;;;;;17.40;70.58;99395.25;4990337;28;106040;-69
2021/07/01 02:27:34;;;;;;;3.80;2.30;;;;;;;17.40;70.52;99397.94;4990511;28;106456;-68
2021/07/01 02:30:00;;;;;;;6.40;2.40;;;;;;;17.37;70.41;99404.66;4991533;28;106194;-69
2021/07/01 02:32:25;;;;;;;3.80;2.53;;;;;;;17.34;70.48;99402.41;4990505;28;106110;-66
2021/07/01 02:34:51;;;;;;;2.45;2.15;;;;;;;17.29;70.39;99401.47;4990138;28;106034;-65
2021/07/01 05:01:11;;;;;;;1.80;1.60;;;;;;;17.14;70.68;99485.34;5006392;28;107425;-67
2021/07/01 05:03:37;;;;;;;3.33;1.88;;;;;;;17.26;71.34;99494.25;5005312;28;106412;-68
2021/07/01 05:06:03;;;;;;;5.50;1.60;;;;;;;17.35;71.14;99484.00;5004251;28;125660;-68
2021/07/01 05:08:28;;;;;;;2.60;1.73;;;;;;;17.45;71.38;99469.94;5005462;28;106714;-67
2021/07/01 05:10:53;;;;;;;2.30;1.88;;;;;;;17.54;71.17;99477.44;5004116;28;133990;-68
2021/07/01 05:13:19;;;;;;;2.45;1.90;;;;;;;17.58;70.57;99486.69;5005963;28;106264;-66
2021/07/01 05:15:44;;;;;;;1.70;1.55;;;;;;;17.65;70.83;99491.16;5005669;28;106790;-69
2021/07/01 05:18:10;;;;;;;1.90;1.55;;;;;;;17.70;70.65;99489.41;5004666;28;106001;-67
2021/07/01 05:20:35;;;;;;;2.72;2.15;;;;;;;17.80;70.70;99488.81;5004222;28;106100;-65
2021/07/01 05:23:01;;;;;;;4.10;1.58;;;;;;;17.89;70.50;99487.41;5005769;28;106041;-67
2021/07/01 05:25:26;;;;;;;2.63;1.65;;;;;;;17.95;70.24;99488.38;5005003;28;105971;-66
2021/07/01 05:27:51;;;;;;;5.10;1.90;;;;;;;17.95;70.34;99492.91;5004790;28;106388;-67
2021/07/01 05:30:17;;;;;;;1.73;1.60;;;;;;;17.93;70.17;99490.47;5004966;28;106107;-66
2021/07/01 05:32:42;;;;;;;4.60;2.72;;;;;;;17.92;70.06;99492.34;5005293;28;106104;-66
2021/07/01 05:35:08;;;;;;;3.13;2.35;;;;;;;17.94;70.26;99494.81;5005055;28;106251;-67
2021/07/01 05:37:34;;;;;;;4.93;2.38;;;;;;;17.97;70.24;99497.03;5004846;28;106081;-66
2021/07/01 05:39:59;;;;;;;3.90;2.08;;;;;;;18.01;70.05;99500.06;5004887;28;106637;-66
2021/07/01 05:42:24;;;;;;;4.93;2.47;;;;;;;17.96;69.64;99513.44;5005767;28;106384;-66
2021/07/01 05:44:50;;;;;;;5.03;2.88;;;;;;;17.89;69.77;99498.19;5003282;28;105837;-66
2021/07/01 05:47:15;;;;;;;3.25;2.00;;;;;;;17.87;69.81;99499.47;5004476;28;105848;-66
2021/07/01 05:49:41;;;;;;;5.18;2.30;;;;;;;17.89;70.07;99508.13;5004525;28;105832;-66
2021/07/01 05:52:07;;;;;;;2.50;2.20;;;;;;;17.88;70.25;99510.00;5005140;28;106050;-68
2021/07/01 05:54:37;;;;;;;4.60;2.40;;;;;;;17.84;70.27;99519.63;5004728;28;106312;-71
2021/07/01 05:57:04;;;;;;;3.03;2.72;;;;;;;17.82;70.32;99518.22;5002827;28;106044;-70
2021/07/01 05:59:29;;;;;;;3.63;2.53;;;;;;;17.87;70.55;99516.44;5002687;28;106230;-64
2021/07/01 06:01:55;;;;;;;3.72;2.53;;;;;;;17.91;70.65;99512.25;5005185;28;105853;-64
2021/07/01 06:04:20;;;;;;;3.17;2.38;;;;;;;17.98;70.68;99514.84;5004283;28;105909;-65
2021/07/01 06:06:53;;;;;;;2.95;2.47;;;;;;;17.97;70.27;99521.28;5003669;28;105824;-65
2021/07/01 06:09:25;;;;;;;3.22;2.30;;;;;;;17.98;70.57;99512.13;5003907;28;105733;-69
2021/07/01 07:46:49;;;;;;;2.42;2.22;;;;;;;20.60;65.47;99520.38;5005584;28;106394;-69
2021/07/01 07:49:14;;;;;;;2.40;2.20;;;;;;;20.94;64.67;99512.91;5004514;28;106070;-69
2021/07/01 07:51:42;;;;;;;3.15;2.70;;;;;;;21.21;63.98;99506.66;5003817;28;106542;-71
2021/07/01 07:54:09;;;;;;;2.20;2.00;;;;;;;21.74;64.32;99508.72;5003499;28;105993;-70
2021/07/01 07:56:36;;;;;;;3.13;1.90;;;;;;;22.08;62.07;99509.19;5001734;28;106427;-70
2021/07/01 07:59:04;;;;;;;2.33;2.13;;;;;;;22.16;61.22;99516.03;5004480;28;105996;-70
2021/07/01 08:01:34;;;;;;;2.45;1.92;;;;;;;22.32;60.94;99519.59;5003861;28;106181;-67
2021/07/01 08:04:04;;;;;;;3.85;2.33;;;;;;;22.54;60.18;99521.34;5003147;28;106037;-68
2021/07/01 08:06:29;;;;;;;3.17;2.22;;;;;;;22.72;59.15;99522.75;5003372;28;106486;-70
2021/07/01 08:08:57;;;;;;;3.58;2.47;;;;;;;23.09;58.52;99511.72;5003915;28;106122;-70
2021/07/01 08:11:24;;;;;;;2.67;1.63;;;;;;;23.77;58.32;99521.53;5003756;28;106465;-70
2021/07/01 08:13:55;;;;;;;2.15;1.92;;;;;;;24.30;55.10;99526.59;5003069;28;106558;-70
2021/07/01 08:16:22;;;;;;;2.00;1.67;;;;;;;24.09;52.11;99520.41;5003535;28;106250;-68
2021/07/01 08:18:48;;;;;;;4.45;1.80;;;;;;;23.66;52.95;99528.88;5003451;28;106094;-71
2021/07/01 08:21:14;;;;;;;1.92;1.60;;;;;;;23.71;53.66;99517.19;5003249;28;106393;-70
2021/07/01 08:23:42;;;;;;;1.90;1.70;;;;;;;24.08;53.23;99518.75;5003219;28;106076;-71
2021/07/01 08:26:08;;;;;;;3.97;1.90;;;;;;;24.07;51.06;99513.59;5003082;28;106301;-68
2021/07/01 08:28:34;;;;;;;2.13;1.92;;;;;;;23.59;49.86;99520.19;5003685;28;106096;-71
2021/07/01 08:31:07;;;;;;;2.08;1.85;;;;;;;23.26;50.88;99521.53;5003211;28;106403;-67
2021/07/01 08:33:35;;;;;;;4.57;1.90;;;;;;;23.12;50.42;99523.94;5002925;28;106254;-69
2021/07/01 08:36:02;;;;;;;1.90;1.77;;;;;;;23.11;51.25;99511.44;5002578;28;106186;-66
2021/07/01 08:38:29;;;;;;;2.60;1.70;;;;;;;23.37;51.08;99508.78;5003641;28;106003;-65
2021/07/01 08:41:00;;;;;;;2.25;1.58;;;;;;;23.60;50.64;99521.81;5003111;28;106387;-65
2021/07/01 08:43:39;;;;;;;2.65;1.88;;;;;;;23.71;50.14;99502.78;5003200;27;107950;-66
2021/07/01 08:46:12;;;;;;;3.13;1.88;;;;;;;24.27;49.49;99510.81;5002299;28;106421;-66
2021/07/01 08:49:00;;;;;;;1.60;1.40;;;;;;;24.49;48.49;99501.47;5003370;28;106405;-66
2021/07/01 08:51:36;;;;;;;3.10;1.70;;;;;;;24.26;47.91;99508.38;5002522;28;106257;-66
2021/07/01 08:54:30;;;;;;;4.05;1.67;;;;;;;24.33;47.67;99500.72;4982792;28;106270;-65
2021/07/01 08:56:56;;;;;;;2.30;1.60;;;;;;;24.60;47.38;99494.88;4975610;28;106940;-66
2021/07/01 08:59:25;;;;;;;2.30;1.60;;;;;;;24.63;46.15;99499.81;4970633;28;105958;-67
2021/07/01 09:01:59;;;;;;;2.75;1.25;;;;;;;24.22;45.92;99502.69;4977668;28;106232;-67
2021/07/01 09:04:37;;;;;;;1.63;1.40;;;;;;;24.17;46.54;99502.69;4988963;28;106498;-66
2021/07/01 09:07:04;;;;;;;2.10;1.58;;;;;;;24.44;46.34;99490.59;4989097;28;106255;-66
2021/07/01 09:09:35;;;;;;;5.47;3.92;;;;;;;24.80;46.11;99498.63;4989608;28;105992;-67
2021/07/01 09:12:04;;;;;;;1.70;1.35;;;;;;;25.25;44.94;99504.03;4989178;28;106084;-66
2021/07/01 09:14:31;;;;;;;2.30;1.20;;;;;;;25.23;44.10;99495.31;4988717;28;105988;-67
2021/07/01 09:17:00;;;;;;;1.30;1.20;;;;;;;25.62;43.75;99498.00;4988653;28;106135;-67
2021/07/01 09:19:27;;;;;;;4.05;1.17;;;;;;;25.85;42.60;99507.31;4989622;28;106130;-66
2021/07/01 09:21:52;;;;;;;1.75;1.25;;;;;;;25.80;42.22;99501.09;4989078;28;106583;-67
2021/07/01 09:24:18;;;;;;;1.98;1.27;;;;;;;25.74;41.71;99504.97;4989106;28;106258;-69
2021/07/01 09:26:47;;;;;;;1.73;1.40;;;;;;;25.43;41.56;99505.28;4988574;28;106293;-69
2021/07/01 09:29:13;;;;;;;2.55;1.25;;;;;;;25.28;42.06;99500.72;4988580;28;106454;-68
2021/07/01 09:31:40;;;;;;;1.48;1.38;;;;;;;25.07;42.10;99508.22;4988793;28;106417;-66
2021/07/01 09:34:08;;;;;;;1.80;1.20;;;;;;;24.80;41.57;99504.06;4985322;28;107801;-69
2021/07/01 09:36:35;;;;;;;1.42;1.27;;;;;;;24.86;41.95;99500.19;4970994;28;105989;-68
2021/07/01 09:39:03;;;;;;;3.30;1.92;;;;;;;24.85;41.44;99490.41;4971240;28;105805;-65
2021/07/01 09:41:28;;;;;;;3.78;1.50;;;;;;;24.98;42.26;99497.13;4970501;28;106139;-65
2021/07/01 09:43:55;;;;;;;1.60;1.38;;;;;;;25.24;41.74;99495.03;4969890;28;106117;-66
2021/07/01 09:46:23;;;;;;;2.65;1.20;;;;;;;25.15;41.23;99488.53;4969949;28;106114;-65
2021/07/01 09:48:52;;;;;;;2.45;1.48;;;;;;;25.41;41.49;99482.91;4970612;28;106006;-66
2021/07/01 09:51:19;;;;;;;1.30;1.20;;;;;;;25.92;40.94;99479.69;4970093;28;106210;-64
2021/07/01 09:53:52;;;;;;;1.67;1.10;;;;;;;26.27;39.80;99485.03;4969597;28;106084;-64
2021/07/01 09:56:37;;;;;;;1.40;1.00;;;;;;;26.48;39.15;99480.16;4969879;28;106392;-63
2021/07/01 09:59:10;;;;;;;1.20;1.10;;;;;;;26.43;38.77;99480.22;4970340;28;105870;-66
2021/07/01 10:01:38;;;;;;;3.75;2.00;;;;;;;26.29;38.88;99482.84;4970447;28;106300;-64
2021/07/01 10:04:04;;;;;;;2.97;1.10;;;;;;;26.09;38.56;99483.91;4972982;28;106511;-65
2021/07/01 10:06:29;;;;;;;2.42;1.15;;;;;;;26.01;38.99;99486.16;4989850;28;106240;-65
2021/07/01 10:08:55;;;;;;;3.28;1.60;;;;;;;26.03;39.44;99488.59;4989539;28;105803;-62
2021/07/01 10:11:42;;;;;;;3.42;1.38;;;;;;;26.09;39.41;99497.53;4976575;28;105983;-69
2021/07/01 10:14:10;;;;;;;3.33;1.40;;;;;;;26.16;39.31;99496.09;4969704;28;106511;-65
2021/07/01 10:16:36;;;;;;;1.27;1.10;;;;;;;26.24;39.15;99497.34;4969149;28;105796;-65
2021/07/01 10:19:04;;;;;;;2.28;1.60;;;;;;;26.16;39.16;99496.09;4983204;28;105873;-65
2021/07/01 10:21:31;;;;;;;2.95;1.50;;;;;;;25.74;39.70;99485.88;4989559;28;106224;-66
2021/07/01 10:24:29;;;;;;;3.92;1.70;;;;;;;25.50;39.74;99503.81;4989504;28;106007;-66
2021/07/01 10:26:56;;;;;;;5.25;1.40;;;;;;;25.21;40.87;99500.25;4979679;28;106150;-68
2021/07/01 10:29:21;;;;;;;3.28;1.70;;;;;;;24.96;40.82;99505.59;4990287;28;106282;-69
2021/07/01 10:31:54;;;;;;;3.40;1.60;;;;;;;24.76;41.70;99497.56;4989479;28;106076;-64
2021/07/01 10:34:19;;;;;;;2.95;1.40;;;;;;;24.55;42.04;99494.09;4987517;28;107568;-66
2021/07/01 10:36:45;;;;;;;3.97;1.95;;;;;;;24.47;42.24;99501.75;4988652;28;106101;-65
2021/07/01 10:39:10;;;;;;;3.38;1.80;;;;;;;24.56;42.37;99504.69;4989858;28;105908;-68
2021/07/01 10:41:39;;;;;;;4.43;1.70;;;;;;;24.76;42.44;99503.81;4989064;28;106162;-64
2021/07/01 10:44:06;;;;;;;3.53;1.63;;;;;;;25.16;42.36;99507.38;4989389;28;106220;-67
2021/07/01 10:46:42;;;;;;;3.15;1.50;;;;;;;25.33;41.45;99509.72;4989104;28;106553;-66
2021/07/01 10:49:08;;;;;;;1.48;1.33;;;;;;;25.32;41.29;99510.75;4989946;28;105909;-67
2021/07/01 10:51:35;;;;;;;2.92;1.50;;;;;;;25.47;41.87;99500.88;4989705;28;106137;-67
2021/07/01 10:54:14;;;;;;;2.10;1.40;;;;;;;25.72;41.35;99509.91;4989299;28;105815;-65
2021/07/01 10:56:43;;;;;;;2.65;1.67;;;;;;;25.78;40.92;99504.13;4989066;28;106099;-68
2021/07/01 10:59:11;;;;;;;2.90;2.20;;;;;;;25.47;40.99;99504.41;4989740;28;106098;-68
2021/07/01 11:01:38;;;;;;;2.70;1.70;;;;;;;25.16;41.09;99507.38;4989239;28;106230;-69
2021/07/01 11:04:04;;;;;;;2.65;1.52;;;;;;;24.72;41.83;99510.91;4988502;28;106214;-67
2021/07/01 11:06:30;;;;;;;3.78;1.73;;;;;;;24.40;42.15;99512.13;4988864;28;106138;-68
2021/07/01 11:08:55;;;;;;;3.75;1.80;;;;;;;24.12;43.02;99514.41;4989651;28;106049;-68
2021/07/01 11:11:22;;;;;;;4.28;1.58;;;;;;;23.82;43.61;99521.53;4989098;28;106405;-68
2021/07/01 11:13:59;;;;;;;3.35;1.55;;;;;;;23.64;43.65;99520.16;4988899;28;105989;-69
2021/07/01 11:16:35;;;;;;;1.77;1.45;;;;;;;23.57;43.97;99525.09;4987551;28;106653;-69
2021/07/01 11:19:01;;;;;;;4.88;1.58;;;;;;;23.53;44.19;99524.00;4989317;28;105870;-70
2021/07/01 11:21:27;;;;;;;1.85;1.50;;;;;;;23.45;44.48;99527.25;4988396;28;106200;-73
2021/07/01 11:24:11;;;;;;;19.38;3.20;;;;;;;23.39;44.29;99525.63;4988533;28;106047;-71
2021/07/01 11:26:37;;;;;;;6.70;1.63;;;;;;;23.35;44.74;99524.53;4988079;28;105919;-70
2021/07/01 11:29:08;;;;;;;4.57;1.45;;;;;;;23.30;44.61;99528.88;4988272;28;105865;-70
2021/07/01 11:31:33;;;;;;;1.90;1.50;;;;;;;23.28;44.72;99530.25;4988647;28;106211;-71
2021/07/01 11:34:00;;;;;;;3.17;1.40;;;;;;;23.17;44.89;99524.00;4988040;28;106636;-72
2021/07/01 11:36:26;;;;;;;1.92;1.30;;;;;;;23.18;44.56;99531.03;4986899;28;107730;-76
2021/07/01 11:39:05;;;;;;;2.17;1.40;;;;;;;23.19;44.83;99531.88;4988675;28;105978;-75
2021/07/01 11:41:31;;;;;;;2.00;1.40;;;;;;;23.20;44.56;99528.88;4988617;28;106074;-83
2021/07/01 11:43:58;;;;;;;1.88;1.17;;;;;;;23.15;44.44;99523.44;4988281;28;106702;-75
2021/07/01 11:46:24;;;;;;;2.22;1.63;;;;;;;23.11;44.71;99530.47;4987816;28;105984;-77
2021/07/01 11:48:52;;;;;;;2.08;1.33;;;;;;;23.06;44.42;99525.00;4989190;28;105835;-71
2021/07/01 11:51:20;;;;;;;1.75;1.30;;;;;;;22.96;44.31;99529.38;4988610;28;106116;-74
2021/07/01 11:53:48;;;;;;;2.42;1.55;;;;;;;22.90;44.72;99535.06;4988203;28;105951;-71
2021/07/01 11:56:14;;;;;;;4.78;1.67;;;;;;;22.90;44.82;99530.44;4987345;28;106182;-76
2021/07/01 11:58:40;;;;;;;4.72;1.27;;;;;;;23.08;45.01;99531.00;4988729;28;106294;-75
2021/07/01 12:01:05;;;;;;;1.42;1.30;;;;;;;23.29;44.64;99527.25;4987475;28;106141;-74
2021/07/01 12:03:31;;;;;;;3.88;1.60;;;;;;;23.52;44.91;99533.22;5002019;28;105875;-78
2021/07/01 12:05:58;;;;;;;2.10;1.48;;;;;;;23.70;43.77;99531.03;4988021;28;105862;-75
2021/07/01 12:08:24;;;;;;;1.38;1.27;;;;;;;23.57;43.72;99530.50;4989870;28;106243;-74
2021/07/01 12:11:04;;;;;;;1.55;1.40;;;;;;;23.57;44.10;99527.81;4987822;28;106141;-74
2021/07/01 12:13:32;;;;;;;3.47;1.65;;;;;;;23.52;43.75;99529.72;4987616;28;106789;-71
2021/07/01 12:16:02;;;;;;;3.80;1.50;;;;;;;23.38;43.61;99529.44;4987650;28;107757;-81
2021/07/01 12:18:55;;;;;;;1.58;1.30;;;;;;;23.14;44.00;99525.34;4988071;28;106036;-75
2021/07/01 12:21:31;;;;;;;3.75;1.30;;;;;;;23.01;44.22;99531.28;4986564;28;106317;-71
2021/07/01 12:24:03;;;;;;;2.00;1.50;;;;;;;22.98;44.46;99537.25;4987804;28;106600;-80
2021/07/01 12:26:39;;;;;;;3.42;1.50;;;;;;;23.00;44.80;99537.78;4987970;28;106163;-75
2021/07/01 12:29:43;;;;;;;3.53;1.20;;;;;;;23.01;44.72;99542.13;4988172;28;106288;-74
2021/07/01 12:32:25;;;;;;;2.17;1.40;;;;;;;22.95;44.84;99543.19;4987560;28;106008;-73
2021/07/01 12:34:51;;;;;;;2.22;1.67;;;;;;;22.95;45.15;99538.59;4989903;28;106014;-77
2021/07/01 12:37:16;;;;;;;1.48;1.38;;;;;;;23.01;44.91;99541.31;4991565;28;105881;-67
2021/07/01 12:39:47;;;;;;;2.10;1.30;;;;;;;22.98;44.83;99548.09;4991734;28;107161;-70
2021/07/01 12:42:12;;;;;;;1.98;1.45;;;;;;;22.97;44.75;99547.28;4990909;28;105909;-73
2021/07/01 12:44:38;;;;;;;1.42;1.30;;;;;;;23.09;45.17;99549.75;4989807;28;106107;-71
2021/07/01 12:47:11;;;;;;;5.15;1.40;;;;;;;23.33;44.98;99551.97;4990374;28;106018;-78
2021/07/01 12:49:38;;;;;;;3.72;1.60;;;;;;;23.47;44.73;99546.84;4991295;28;106018;-74
2021/07/01 12:52:10;;;;;;;4.10;1.42;;;;;;;23.56;44.22;99545.19;4990531;28;105979;-74
2021/07/01 12:54:35;;;;;;;9.95;1.85;;;;;;;23.74;43.84;99546.56;4989926;28;107049;-71
2021/07/01 12:57:02;;;;;;;3.00;1.60;;;;;;;23.95;44.01;99544.66;4990023;28;106546;-72
2021/07/01 12:59:31;;;;;;;3.90;1.42;;;;;;;24.17;43.82;99551.69;4990550;28;106499;-70
2021/07/01 13:02:03;;;;;;;1.93;1.23;;;;;;;24.44;43.42;99545.03;4991145;28;105827;-75
2021/07/01 13:04:30;;;;;;;3.45;1.35;;;;;;;24.56;43.10;99545.53;4989316;28;106021;-74
2021/07/01 13:06:57;;;;;;;7.05;1.60;;;;;;;24.62;43.09;99547.19;4990395;28;105975;-70
